Wetterdaten: Woche 02.04.18 - 08.04.18 (KW14)
Datum Zeit Temp. Aussen Temp. o. S. +5cm Feuchte Auss BlattFeu 1 Luftdruck Regen Sonnenschein Regendauer Solar Windben Empfang
02.04.2018 00:00 4,4 C 2,8 C 1,3 C 94 % 15 lf 1012,5 hPa 0,0 l/m 0,00 h 0,00 h 0 W/m 1,6 km/h (1 Bft) 96,47 %
02.04.2018 01:00 3,2 C 1,8 C 0,1 C 94 % 15 lf 1012,2 hPa 0,0 l/m 0,00 h 0,00 h 0 W/m 0,2 km/h (0 Bft) 96,87 %
02.04.2018 02:00 2,4 C 1,9 C 0,2 C 94 % 15 lf 1012,0 hPa 0,0 l/m 0,00 h 0,00 h 0 W/m 0,2 km/h (0 Bft) 95,94 %
02.04.2018 03:00 2,5 C 2,1 C 0,7 C 95 % 15 lf 1011,4 hPa 0,0 l/m 0,00 h 0,00 h 0 W/m 2,2 km/h (1 Bft) 96,02 %
02.04.2018 04:00 2,6 C 1,8 C 0,2 C 96 % 15 lf 1010,8 hPa 0,0 l/m 0,00 h 0,00 h 0 W/m 0,0 km/h (0 Bft) 96,69 %
02.04.2018 05:00 2,3 C 1,9 C 0,6 C 96 % 15 lf 1010,3 hPa 0,0 l/m 0,00 h 0,00 h 0 W/m 0,0 km/h (0 Bft) 95,97 %
02.04.2018 06:00 2,4 C 2,0 C 0,8 C 96 % 15 lf 1009,7 hPa 0,0 l/m 0,00 h 0,00 h 3 W/m 6,7 km/h (2 Bft) 97,06 %
02.04.2018 07:00 2,9 C 2,7 C 1,9 C 97 % 15 lf 1009,4 hPa 0,0 l/m 0,00 h 0,00 h 17 W/m 10,1 km/h (2 Bft) 94,32 %
02.04.2018 08:00 3,5 C 3,9 C 3,0 C 97 % 15 lf 1009,0 hPa 0,0 l/m 0,00 h 0,00 h 50 W/m 11,8 km/h (2 Bft) 98,71 %
02.04.2018 09:00 4,6 C 6,1 C 4,9 C 98 % 6 lf 1008,6 hPa 0,0 l/m 0,00 h 0,00 h 131 W/m 15,5 km/h (3 Bft) 96,14 %
02.04.2018 10:00 6,3 C 8,2 C 7,5 C 96 % 0 lf 1008,0 hPa 0,0 l/m 0,43 h 0,00 h 243 W/m 21,0 km/h (4 Bft) 95,04 %
02.04.2018 11:00 7,8 C 9,5 C 9,5 C 88 % 0 lf 1007,5 hPa 0,0 l/m 0,33 h 0,00 h 268 W/m 23,7 km/h (4 Bft) 98,06 %
02.04.2018 12:00 10,4 C 13,0 C 13,3 C 79 % 0 lf 1006,5 hPa 0,0 l/m 0,57 h 0,00 h 407 W/m 26,4 km/h (4 Bft) 97,13 %
02.04.2018 13:00 11,3 C 13,4 C 13,4 C 70 % 0 lf 1005,5 hPa 0,0 l/m 0,77 h 0,00 h 407 W/m 30,2 km/h (5 Bft) 95,03 %
02.04.2018 14:00 12,5 C 14,2 C 14,0 C 64 % 0 lf 1004,5 hPa 0,0 l/m 0,80 h 0,00 h 367 W/m 31,8 km/h (5 Bft) 96,74 %
02.04.2018 15:00 12,8 C 13,5 C 13,3 C 63 % 0 lf 1003,5 hPa 0,0 l/m 0,13 h 0,00 h 223 W/m 25,6 km/h (4 Bft) 98,39 %
02.04.2018 16:00 13,2 C 13,5 C 13,0 C 67 % 0 lf 1002,4 hPa 0,0 l/m 0,20 h 0,47 h 206 W/m 23,6 km/h (4 Bft) 94,59 %
02.04.2018 17:00 13,6 C 14,1 C 13,7 C 65 % 0 lf 1001,2 hPa 0,0 l/m 0,30 h 0,00 h 182 W/m 27,1 km/h (4 Bft) 96,12 %
02.04.2018 18:00 13,2 C 13,1 C 12,2 C 63 % 0 lf 1000,2 hPa 0,0 l/m 0,10 h 0,00 h 85 W/m 27,7 km/h (4 Bft) 97,64 %
02.04.2018 19:00 12,6 C 11,9 C 10,4 C 67 % 0 lf 999,8 hPa 0,0 l/m 0,00 h 0,33 h 16 W/m 23,2 km/h (4 Bft) 96,18 %
02.04.2018 20:00 11,8 C 10,6 C 8,1 C 74 % 0 lf 1000,0 hPa 0,0 l/m 0,00 h 1,00 h 0 W/m 20,5 km/h (4 Bft) 94,70 %
02.04.2018 21:00 11,1 C 9,6 C 7,6 C 77 % 0 lf 1000,0 hPa 0,0 l/m 0,00 h 0,97 h 0 W/m 20,0 km/h (4 Bft) 99,08 %
02.04.2018 22:00 10,4 C 9,1 C 7,6 C 82 % 0 lf 999,5 hPa 0,0 l/m 0,00 h 0,83 h 0 W/m 18,9 km/h (3 Bft) 96,26 %
02.04.2018 23:00 10,0 C 8,8 C 7,2 C 85 % 0 lf 999,4 hPa 0,0 l/m 0,00 h 0,77 h 0 W/m 16,1 km/h (3 Bft) 94,70 %
03.04.2018 00:00 9,5 C 8,2 C 7,2 C 88 % 0 lf 999,3 hPa 0,0 l/m 0,00 h 0,43 h 0 W/m 13,6 km/h (3 Bft) 93,98 %
03.04.2018 01:00 11,1 C 11,0 C 8,4 C 83 % 0 lf 999,4 hPa 0,2 l/m 0,00 h 0,57 h 0 W/m 26,8 km/h (4 Bft) 95,37 %
03.04.2018 02:00 11,4 C 10,7 C 8,5 C 85 % 1 lf 999,4 hPa 0,0 l/m 0,00 h 0,53 h 0 W/m 24,0 km/h (4 Bft) 97,30 %
03.04.2018 03:00 10,9 C 9,6 C 8,3 C 90 % 12 lf 999,3 hPa 0,2 l/m 0,00 h 0,77 h 0 W/m 22,2 km/h (4 Bft) 96,01 %
03.04.2018 04:00 10,3 C 9,1 C 7,6 C 92 % 12 lf 999,2 hPa 0,0 l/m 0,00 h 0,00 h 0 W/m 12,5 km/h (3 Bft) 94,90 %
03.04.2018 05:00 9,8 C 9,1 C 7,3 C 92 % 1 lf 999,5 hPa 0,0 l/m 0,00 h 0,00 h 0 W/m 11,4 km/h (2 Bft) 97,46 %
03.04.2018 06:00 9,7 C 9,4 C 7,2 C 93 % 0 lf 999,4 hPa 0,0 l/m 0,00 h 0,00 h 0 W/m 12,9 km/h (3 Bft) 97,31 %
03.04.2018 07:00 9,6 C 9,5 C 7,4 C 92 % 0 lf 999,4 hPa 0,0 l/m 0,00 h 0,00 h 16 W/m 10,6 km/h (2 Bft) 93,18 %
03.04.2018 08:00 10,1 C 10,7 C 8,4 C 91 % 0 lf 999,7 hPa 0,0 l/m 0,00 h 0,00 h 47 W/m 12,0 km/h (2 Bft) 98,25 %
03.04.2018 09:00 11,7 C 15,6 C 11,0 C 88 % 0 lf 999,8 hPa 0,0 l/m 0,80 h 0,00 h 287 W/m 18,5 km/h (3 Bft) 97,93 %
03.04.2018 10:00 13,8 C 15,8 C 14,4 C 76 % 0 lf 999,8 hPa 0,0 l/m 0,50 h 0,00 h 259 W/m 26,6 km/h (4 Bft) 93,16 %
03.04.2018 11:00 14,6 C 15,0 C 13,8 C 69 % 0 lf 1000,1 hPa 0,0 l/m 0,23 h 0,17 h 165 W/m 29,1 km/h (5 Bft) 98,94 %
03.04.2018 12:00 14,5 C 15,7 C 14,5 C 69 % 0 lf 1000,3 hPa 0,0 l/m 0,37 h 0,17 h 244 W/m 26,5 km/h (4 Bft) 95,84 %
03.04.2018 13:00 14,9 C 17,3 C 15,9 C 68 % 0 lf 1000,4 hPa 0,0 l/m 0,57 h 0,03 h 365 W/m 25,1 km/h (4 Bft) 95,79 %
03.04.2018 14:00 15,6 C 17,1 C 16,1 C 66 % 0 lf 1000,2 hPa 0,0 l/m 0,30 h 0,17 h 297 W/m 22,1 km/h (4 Bft) 96,84 %
03.04.2018 15:00 15,8 C 15,6 C 15,0 C 69 % 1 lf 999,9 hPa 0,0 l/m 0,00 h 0,33 h 200 W/m 18,1 km/h (3 Bft) 97,48 %
03.04.2018 16:00 16,5 C 19,1 C 17,1 C 69 % 0 lf 999,5 hPa 0,0 l/m 0,63 h 0,00 h 378 W/m 18,3 km/h (3 Bft) 95,34 %
03.04.2018 17:00 17,3 C 17,5 C 16,6 C 62 % 0 lf 999,1 hPa 0,0 l/m 0,43 h 0,00 h 200 W/m 33,6 km/h (5 Bft) 95,74 %
03.04.2018 18:00 16,0 C 15,6 C 14,4 C 67 % 0 lf 999,2 hPa 0,0 l/m 0,03 h 0,07 h 59 W/m 29,5 km/h (5 Bft) 98,22 %
03.04.2018 19:00 14,6 C 13,4 C 12,0 C 74 % 0 lf 999,1 hPa 0,0 l/m 0,00 h 0,33 h 16 W/m 25,7 km/h (4 Bft) 96,47 %
03.04.2018 20:00 12,9 C 12,1 C 10,6 C 83 % 0 lf 999,1 hPa 0,0 l/m 0,00 h 0,00 h 9 W/m 16,7 km/h (3 Bft) 94,43 %
03.04.2018 21:00 12,1 C 11,9 C 10,0 C 83 % 0 lf 998,9 hPa 0,0 l/m 0,00 h 0,00 h 0 W/m 15,1 km/h (3 Bft) 98,43 %
03.04.2018 22:00 12,4 C 12,2 C 10,5 C 81 % 0 lf 998,5 hPa 0,0 l/m 0,00 h 0,17 h 0 W/m 19,0 km/h (3 Bft) 96,81 %
03.04.2018 23:00 12,6 C 12,6 C 10,5 C 77 % 0 lf 998,6 hPa 0,0 l/m 0,00 h 0,00 h 0 W/m 23,4 km/h (4 Bft) 94,66 %
04.04.2018 00:00 13,1 C 12,8 C 11,2 C 74 % 0 lf 999,8 hPa 0,0 l/m 0,00 h 0,00 h 0 W/m 35,7 km/h (5 Bft) 98,29 %
04.04.2018 01:00 12,3 C 11,7 C 10,3 C 78 % 0 lf 1000,8 hPa 0,0 l/m 0,00 h 0,00 h 0 W/m 25,9 km/h (4 Bft) 96,43 %
04.04.2018 02:00 11,3 C 10,5 C 8,8 C 81 % 0 lf 1001,3 hPa 0,0 l/m 0,00 h 0,00 h 0 W/m 18,1 km/h (3 Bft) 95,00 %
04.04.2018 03:00 10,3 C 9,2 C 7,2 C 84 % 0 lf 1001,3 hPa 0,0 l/m 0,00 h 0,00 h 0 W/m 11,4 km/h (2 Bft) 97,41 %
04.04.2018 04:00 9,3 C 7,9 C 4,7 C 85 % 0 lf 1001,4 hPa 0,0 l/m 0,00 h 0,00 h 0 W/m 7,2 km/h (2 Bft) 96,07 %
04.04.2018 05:00 8,3 C 7,8 C 5,9 C 88 % 0 lf 1001,0 hPa 0,0 l/m 0,00 h 0,00 h 0 W/m 7,8 km/h (2 Bft) 95,94 %
04.04.2018 06:00 8,0 C 7,2 C 5,2 C 88 % 0 lf 1000,6 hPa 0,0 l/m 0,00 h 0,00 h 0 W/m 6,1 km/h (2 Bft) 97,46 %
04.04.2018 07:00 7,8 C 8,0 C 6,3 C 89 % 0 lf 1000,5 hPa 0,0 l/m 0,40 h 0,00 h 27 W/m 10,2 km/h (2 Bft) 96,00 %
04.04.2018 08:00 9,0 C 9,2 C 7,9 C 89 % 0 lf 1000,4 hPa 0,0 l/m 0,00 h 0,47 h 40 W/m 13,5 km/h (3 Bft) 97,17 %
04.04.2018 09:00 9,9 C 9,2 C 8,3 C 90 % 0 lf 1000,4 hPa 0,0 l/m 0,00 h 0,83 h 79 W/m 21,1 km/h (4 Bft) 94,41 %
04.04.2018 10:00 10,6 C 11,5 C 10,6 C 92 % 0 lf 1000,1 hPa 0,0 l/m 0,03 h 0,03 h 171 W/m 21,2 km/h (4 Bft) 98,40 %
04.04.2018 11:00 12,1 C 14,0 C 13,9 C 90 % 0 lf 999,7 hPa 0,0 l/m 0,33 h 0,00 h 286 W/m 21,6 km/h (4 Bft) 95,23 %
04.04.2018 12:00 13,5 C 15,1 C 15,6 C 85 % 0 lf 999,3 hPa 0,0 l/m 0,40 h 0,00 h 306 W/m 23,1 km/h (4 Bft) 95,88 %
04.04.2018 13:00 14,2 C 14,7 C 15,0 C 80 % 0 lf 998,9 hPa 0,0 l/m 0,00 h 0,00 h 230 W/m 27,3 km/h (4 Bft) 97,65 %
04.04.2018 14:00 14,6 C 15,2 C 14,9 C 76 % 0 lf 998,8 hPa 0,0 l/m 0,00 h 0,00 h 190 W/m 29,2 km/h (5 Bft) 95,92 %
04.04.2018 15:00 14,7 C 15,3 C 14,7 C 74 % 0 lf 998,5 hPa 0,0 l/m 0,03 h 0,00 h 184 W/m 28,0 km/h (4 Bft) 95,49 %
04.04.2018 16:00 14,3 C 14,5 C 13,7 C 74 % 0 lf 998,7 hPa 0,0 l/m 0,00 h 0,03 h 116 W/m 30,8 km/h (5 Bft) 98,78 %
04.04.2018 17:00 14,8 C 15,6 C 14,7 C 73 % 0 lf 998,5 hPa 0,0 l/m 0,77 h 0,03 h 262 W/m 35,5 km/h (5 Bft) 94,85 %
04.04.2018 18:00 15,2 C 15,4 C 13,8 C 69 % 0 lf 998,4 hPa 0,0 l/m 1,00 h 0,00 h 186 W/m 35,0 km/h (5 Bft) 96,93 %
04.04.2018 19:00 14,4 C 13,6 C 11,9 C 69 % 0 lf 998,2 hPa 0,0 l/m 0,07 h 0,00 h 24 W/m 27,7 km/h (4 Bft) 97,05 %
04.04.2018 20:00 13,1 C 12,3 C 10,2 C 72 % 0 lf 998,4 hPa 0,0 l/m 0,00 h 0,00 h 6 W/m 16,6 km/h (3 Bft) 96,33 %
04.04.2018 21:00 12,2 C 11,5 C 9,0 C 73 % 0 lf 999,0 hPa 0,0 l/m 0,00 h 0,00 h 0 W/m 12,0 km/h (2 Bft) 96,59 %
04.04.2018 22:00 11,4 C 10,9 C 9,3 C 78 % 0 lf 999,1 hPa 0,0 l/m 0,00 h 0,20 h 0 W/m 14,4 km/h (3 Bft) 94,86 %
04.04.2018 23:00 11,0 C 9,2 C 7,9 C 84 % 12 lf 999,4 hPa 0,0 l/m 0,00 h 0,47 h 0 W/m 12,9 km/h (3 Bft) 97,65 %
05.04.2018 00:00 10,5 C 9,6 C 7,8 C 85 % 5 lf 999,8 hPa 0,0 l/m 0,00 h 0,47 h 0 W/m 21,4 km/h (4 Bft) 96,83 %
05.04.2018 01:00 10,2 C 9,8 C 7,8 C 86 % 2 lf 1000,1 hPa 0,0 l/m 0,00 h 0,33 h 0 W/m 24,9 km/h (4 Bft) 95,43 %
05.04.2018 02:00 10,2 C 10,0 C 8,1 C 86 % 0 lf 1000,6 hPa 0,0 l/m 0,00 h 0,00 h 0 W/m 22,6 km/h (4 Bft) 95,35 %
05.04.2018 03:00 10,1 C 9,7 C 8,2 C 86 % 1 lf 1000,9 hPa 0,0 l/m 0,00 h 0,30 h 0 W/m 22,8 km/h (4 Bft) 97,74 %
05.04.2018 04:00 9,7 C 9,3 C 7,6 C 89 % 0 lf 1001,3 hPa 0,0 l/m 0,00 h 0,00 h 0 W/m 21,4 km/h (4 Bft) 96,93 %
05.04.2018 05:00 9,9 C 9,5 C 8,2 C 88 % 0 lf 1001,7 hPa 0,0 l/m 0,00 h 0,07 h 0 W/m 25,1 km/h (4 Bft) 96,55 %
05.04.2018 06:00 10,0 C 9,7 C 8,3 C 87 % 2 lf 1002,3 hPa 0,0 l/m 0,00 h 0,23 h 4 W/m 29,1 km/h (5 Bft) 96,42 %
05.04.2018 07:00 9,8 C 9,5 C 8,1 C 87 % 4 lf 1003,1 hPa 0,0 l/m 0,00 h 0,53 h 13 W/m 35,0 km/h (5 Bft) 98,17 %
05.04.2018 08:00 9,0 C 8,8 C 7,6 C 86 % 4 lf 1004,4 hPa 0,0 l/m 0,00 h 0,30 h 32 W/m 41,4 km/h (6 Bft) 95,92 %
05.04.2018 09:00 8,3 C 8,3 C 7,4 C 82 % 0 lf 1005,7 hPa 0,0 l/m 0,00 h 0,07 h 66 W/m 44,7 km/h (6 Bft) 95,17 %
05.04.2018 10:00 7,6 C 7,2 C 6,0 C 85 % 12 lf 1007,5 hPa 0,0 l/m 0,00 h 0,80 h 56 W/m 31,7 km/h (5 Bft) 97,67 %
05.04.2018 11:00 6,8 C 7,6 C 6,0 C 90 % 11 lf 1009,1 hPa 0,0 l/m 0,00 h 0,40 h 146 W/m 29,7 km/h (5 Bft) 97,49 %
05.04.2018 12:00 8,2 C 11,2 C 9,8 C 82 % 3 lf 1010,3 hPa 0,0 l/m 0,47 h 0,17 h 361 W/m 35,5 km/h (5 Bft) 93,64 %
05.04.2018 13:00 7,7 C 8,5 C 7,2 C 82 % 9 lf 1012,0 hPa 0,0 l/m 0,03 h 0,63 h 170 W/m 34,4 km/h (5 Bft) 98,82 %
05.04.2018 14:00 7,5 C 8,8 C 8,1 C 81 % 3 lf 1013,8 hPa 0,0 l/m 0,07 h 0,17 h 223 W/m 34,8 km/h (5 Bft) 95,76 %
05.04.2018 15:00 7,6 C 9,1 C 8,5 C 78 % 2 lf 1015,3 hPa 0,0 l/m 0,13 h 0,10 h 225 W/m 33,8 km/h (5 Bft) 95,19 %
05.04.2018 16:00 8,7 C 10,9 C 9,3 C 70 % 0 lf 1016,4 hPa 0,0 l/m 0,27 h 0,03 h 274 W/m 29,1 km/h (5 Bft) 97,29 %
05.04.2018 17:00 9,6 C 10,7 C 9,1 C 67 % 0 lf 1017,2 hPa 0,0 l/m 0,80 h 0,00 h 302 W/m 28,5 km/h (4 Bft) 96,92 %
05.04.2018 18:00 10,0 C 10,5 C 8,3 C 66 % 0 lf 1018,1 hPa 0,0 l/m 0,97 h 0,00 h 205 W/m 21,2 km/h (4 Bft) 94,81 %
05.04.2018 19:00 8,7 C 7,9 C 6,1 C 64 % 0 lf 1019,0 hPa 0,0 l/m 0,20 h 0,00 h 36 W/m 16,4 km/h (3 Bft) 97,06 %
05.04.2018 20:00 7,2 C 5,0 C 3,0 C 67 % 0 lf 1019,7 hPa 0,0 l/m 0,00 h 0,00 h 9 W/m 7,4 km/h (2 Bft) 97,52 %
05.04.2018 21:00 5,4 C 3,1 C 0,9 C 72 % 0 lf 1020,5 hPa 0,0 l/m 0,00 h 0,00 h 0 W/m 1,9 km/h (1 Bft) 94,70 %
05.04.2018 22:00 3,8 C 2,1 C 0,0 C 77 % 0 lf 1021,1 hPa 0,0 l/m 0,00 h 0,00 h 0 W/m 1,0 km/h (0 Bft) 96,64 %
05.04.2018 23:00 2,7 C 1,5 C -0,6 C 81 % 0 lf 1021,5 hPa 0,0 l/m 0,00 h 0,00 h 0 W/m 0,0 km/h (0 Bft) 97,41 %
06.04.2018 00:00 2,0 C 1,1 C -0,9 C 85 % 1 lf 1021,6 hPa 0,0 l/m 0,00 h 0,00 h 0 W/m 0,7 km/h (0 Bft) 96,05 %
06.04.2018 01:00 1,5 C 1,1 C -0,6 C 88 % 0 lf 1021,9 hPa 0,0 l/m 0,00 h 0,00 h 0 W/m 0,9 km/h (0 Bft) 95,53 %
06.04.2018 02:00 1,5 C 1,4 C -0,2 C 90 % 0 lf 1021,8 hPa 0,0 l/m 0,00 h 0,00 h 0 W/m 2,2 km/h (1 Bft) 96,91 %
06.04.2018 03:00 1,4 C 1,0 C -0,6 C 90 % 0 lf 1021,7 hPa 0,0 l/m 0,00 h 0,00 h 0 W/m 0,6 km/h (0 Bft) 96,61 %
06.04.2018 04:00 1,3 C 1,3 C -0,4 C 90 % 0 lf 1021,5 hPa 0,0 l/m 0,00 h 0,00 h 0 W/m 4,7 km/h (1 Bft) 95,95 %
06.04.2018 05:00 1,6 C 1,0 C -0,4 C 92 % 1 lf 1021,3 hPa 0,0 l/m 0,00 h 0,00 h 0 W/m 6,9 km/h (2 Bft) 95,50 %
06.04.2018 06:00 1,1 C 0,4 C -1,5 C 92 % 3 lf 1021,3 hPa 0,0 l/m 0,00 h 0,00 h 5 W/m 7,1 km/h (2 Bft) 97,16 %
06.04.2018 07:00 1,1 C 1,2 C -0,4 C 93 % 4 lf 1021,0 hPa 0,0 l/m 0,70 h 0,00 h 44 W/m 15,1 km/h (3 Bft) 97,06 %
06.04.2018 08:00 2,3 C 4,4 C 1,6 C 93 % 0 lf 1020,7 hPa 0,0 l/m 1,00 h 0,00 h 195 W/m 24,1 km/h (4 Bft) 95,12 %
06.04.2018 09:00 5,6 C 11,4 C 6,0 C 83 % 0 lf 1020,5 hPa 0,0 l/m 1,00 h 0,00 h 365 W/m 28,2 km/h (4 Bft) 95,74 %
06.04.2018 10:00 8,2 C 13,1 C 11,5 C 71 % 0 lf 1020,2 hPa 0,0 l/m 1,00 h 0,00 h 516 W/m 32,1 km/h (5 Bft) 98,24 %
06.04.2018 11:00 10,0 C 15,1 C 14,7 C 62 % 0 lf 1019,6 hPa 0,0 l/m 1,00 h 0,00 h 631 W/m 34,3 km/h (5 Bft) 96,16 %
06.04.2018 12:00 11,6 C 16,3 C 15,9 C 52 % 0 lf 1019,0 hPa 0,0 l/m 0,93 h 0,00 h 615 W/m 38,1 km/h (5 Bft) 95,26 %
06.04.2018 13:00 12,8 C 17,2 C 12,8 C 48 % 0 lf 1018,1 hPa 0,0 l/m 1,00 h 0,00 h 735 W/m 40,5 km/h (6 Bft) 97,18 %
06.04.2018 14:00 14,1 C 18,5 C 13,3 C 46 % 0 lf 1017,1 hPa 0,0 l/m 1,00 h 0,00 h 703 W/m 36,8 km/h (5 Bft) 97,29 %
06.04.2018 15:00 15,3 C 19,1 C 14,7 C 44 % 0 lf 1016,0 hPa 0,0 l/m 1,00 h 0,00 h 619 W/m 38,6 km/h (5 Bft) 95,27 %
06.04.2018 16:00 15,7 C 18,1 C 14,3 C 41 % 0 lf 1015,0 hPa 0,0 l/m 1,00 h 0,00 h 512 W/m 39,1 km/h (6 Bft) 96,83 %
06.04.2018 17:00 15,9 C 15,9 C 13,9 C 41 % 0 lf 1014,2 hPa 0,0 l/m 1,00 h 0,00 h 338 W/m 35,9 km/h (5 Bft) 96,68 %
06.04.2018 18:00 15,6 C 15,1 C 13,3 C 42 % 0 lf 1013,7 hPa 0,0 l/m 0,57 h 0,00 h 154 W/m 35,5 km/h (5 Bft) 96,54 %
06.04.2018 19:00 14,1 C 13,3 C 11,4 C 46 % 0 lf 1013,6 hPa 0,0 l/m 0,00 h 0,00 h 35 W/m 27,8 km/h (4 Bft) 95,25 %
06.04.2018 20:00 12,8 C 12,1 C 10,0 C 48 % 0 lf 1013,3 hPa 0,0 l/m 0,00 h 0,00 h 7 W/m 26,5 km/h (4 Bft) 97,30 %
06.04.2018 21:00 12,0 C 11,6 C 9,3 C 51 % 0 lf 1012,9 hPa 0,0 l/m 0,00 h 0,00 h 0 W/m 30,9 km/h (5 Bft) 96,74 %
06.04.2018 22:00 11,6 C 11,1 C 9,0 C 52 % 0 lf 1012,4 hPa 0,0 l/m 0,00 h 0,00 h 0 W/m 32,2 km/h (5 Bft) 95,32 %
06.04.2018 23:00 11,1 C 10,7 C 8,6 C 55 % 0 lf 1011,8 hPa 0,0 l/m 0,00 h 0,00 h 0 W/m 30,5 km/h (5 Bft) 97,10 %
07.04.2018 00:00 10,7 C 10,2 C 8,3 C 58 % 0 lf 1011,4 hPa 0,0 l/m 0,00 h 0,00 h 0 W/m 26,8 km/h (4 Bft) 96,58 %
07.04.2018 01:00 10,5 C 10,0 C 7,9 C 60 % 0 lf 1011,4 hPa 0,0 l/m 0,00 h 0,00 h 0 W/m 24,4 km/h (4 Bft) 96,99 %
07.04.2018 02:00 10,0 C 9,5 C 7,4 C 62 % 0 lf 1011,5 hPa 0,0 l/m 0,00 h 0,00 h 0 W/m 20,7 km/h (4 Bft) 95,34 %
07.04.2018 03:00 9,5 C 9,2 C 7,2 C 64 % 0 lf 1011,0 hPa 0,0 l/m 0,00 h 0,00 h 0 W/m 23,0 km/h (4 Bft) 96,51 %
07.04.2018 04:00 9,5 C 9,1 C 7,2 C 64 % 0 lf 1010,6 hPa 0,0 l/m 0,00 h 0,00 h 0 W/m 23,7 km/h (4 Bft) 96,56 %
07.04.2018 05:00 9,3 C 8,9 C 7,1 C 65 % 0 lf 1010,4 hPa 0,0 l/m 0,00 h 0,00 h 0 W/m 25,9 km/h (4 Bft) 97,56 %
07.04.2018 06:00 8,9 C 8,3 C 6,6 C 67 % 0 lf 1010,2 hPa 0,0 l/m 0,00 h 0,00 h 5 W/m 24,9 km/h (4 Bft) 95,56 %
07.04.2018 07:00 8,6 C 8,4 C 6,7 C 69 % 0 lf 1010,0 hPa 0,0 l/m 0,77 h 0,00 h 51 W/m 25,1 km/h (4 Bft) 97,91 %
07.04.2018 08:00 9,4 C 10,5 C 8,3 C 68 % 0 lf 1010,3 hPa 0,0 l/m 1,00 h 0,00 h 219 W/m 30,4 km/h (5 Bft) 96,76 %
07.04.2018 09:00 11,5 C 15,0 C 11,9 C 64 % 0 lf 1010,4 hPa 0,0 l/m 1,00 h 0,00 h 343 W/m 28,9 km/h (5 Bft) 94,21 %
07.04.2018 10:00 13,4 C 17,0 C 15,9 C 61 % 0 lf 1010,3 hPa 0,0 l/m 1,00 h 0,00 h 467 W/m 31,0 km/h (5 Bft) 97,42 %
07.04.2018 11:00 15,0 C 18,3 C 17,6 C 59 % 0 lf 1010,1 hPa 0,0 l/m 1,00 h 0,00 h 477 W/m 31,9 km/h (5 Bft) 98,25 %
07.04.2018 12:00 16,9 C 19,8 C 19,3 C 56 % 0 lf 1009,7 hPa 0,0 l/m 1,00 h 0,00 h 437 W/m 26,6 km/h (4 Bft) 93,75 %
07.04.2018 13:00 19,1 C 22,6 C 20,1 C 52 % 0 lf 1009,1 hPa 0,0 l/m 1,00 h 0,00 h 589 W/m 28,5 km/h (4 Bft) 98,38 %
07.04.2018 14:00 21,1 C 25,3 C 20,8 C 49 % 0 lf 1008,7 hPa 0,0 l/m 1,00 h 0,00 h 685 W/m 26,7 km/h (4 Bft) 97,29 %
07.04.2018 15:00 22,5 C 26,3 C 21,9 C 46 % 0 lf 1008,0 hPa 0,0 l/m 1,00 h 0,00 h 612 W/m 27,0 km/h (4 Bft) 94,00 %
07.04.2018 16:00 23,4 C 25,7 C 21,7 C 45 % 0 lf 1007,3 hPa 0,0 l/m 1,00 h 0,00 h 488 W/m 25,5 km/h (4 Bft) 98,63 %
07.04.2018 17:00 23,9 C 23,9 C 21,5 C 44 % 0 lf 1006,9 hPa 0,0 l/m 1,00 h 0,00 h 340 W/m 22,9 km/h (4 Bft) 96,89 %
07.04.2018 18:00 23,8 C 23,3 C 20,5 C 44 % 0 lf 1006,7 hPa 0,0 l/m 1,00 h 0,00 h 182 W/m 19,9 km/h (4 Bft) 95,70 %
07.04.2018 19:00 23,1 C 21,8 C 17,9 C 46 % 0 lf 1006,8 hPa 0,0 l/m 0,17 h 0,00 h 45 W/m 11,2 km/h (2 Bft) 95,39 %
07.04.2018 20:00 20,9 C 18,5 C 12,5 C 50 % 0 lf 1007,1 hPa 0,0 l/m 0,00 h 0,00 h 7 W/m 6,4 km/h (2 Bft) 99,05 %
07.04.2018 21:00 17,9 C 15,1 C 9,9 C 59 % 0 lf 1007,6 hPa 0,0 l/m 0,00 h 0,00 h 0 W/m 0,9 km/h (0 Bft) 95,09 %
07.04.2018 22:00 15,6 C 14,3 C 9,2 C 64 % 0 lf 1007,7 hPa 0,0 l/m 0,00 h 0,00 h 0 W/m 6,7 km/h (2 Bft) 96,08 %
07.04.2018 23:00 14,7 C 13,8 C 8,4 C 66 % 0 lf 1007,5 hPa 0,0 l/m 0,00 h 0,00 h 0 W/m 6,6 km/h (2 Bft) 98,15 %
08.04.2018 00:00 13,9 C 13,1 C 7,6 C 68 % 0 lf 1007,4 hPa 0,0 l/m 0,00 h 0,00 h 0 W/m 6,9 km/h (2 Bft) 95,13 %
08.04.2018 01:00 12,9 C 11,8 C 7,0 C 71 % 0 lf 1007,3 hPa 0,0 l/m 0,00 h 0,00 h 0 W/m 5,2 km/h (1 Bft) 94,81 %
08.04.2018 02:00 12,4 C 12,3 C 8,7 C 74 % 0 lf 1007,0 hPa 0,0 l/m 0,00 h 0,00 h 0 W/m 9,9 km/h (2 Bft) 98,20 %
08.04.2018 03:00 12,4 C 11,7 C 8,1 C 73 % 0 lf 1006,7 hPa 0,0 l/m 0,00 h 0,00 h 0 W/m 8,6 km/h (2 Bft) 95,69 %
08.04.2018 04:00 11,8 C 11,2 C 7,0 C 75 % 0 lf 1006,6 hPa 0,0 l/m 0,00 h 0,00 h 0 W/m 6,5 km/h (2 Bft) 95,21 %
08.04.2018 05:00 11,4 C 11,1 C 7,8 C 77 % 0 lf 1006,2 hPa 0,0 l/m 0,00 h 0,00 h 0 W/m 8,3 km/h (2 Bft) 98,31 %
08.04.2018 06:00 11,2 C 10,7 C 7,5 C 78 % 0 lf 1006,3 hPa 0,0 l/m 0,00 h 0,00 h 5 W/m 8,2 km/h (2 Bft) 95,57 %
08.04.2018 07:00 11,1 C 11,5 C 8,7 C 78 % 0 lf 1006,3 hPa 0,0 l/m 0,33 h 0,00 h 44 W/m 9,5 km/h (2 Bft) 95,42 %
08.04.2018 08:00 12,3 C 12,9 C 11,7 C 74 % 0 lf 1006,4 hPa 0,0 l/m 0,33 h 0,00 h 87 W/m 13,1 km/h (3 Bft) 96,39 %
08.04.2018 09:00 13,8 C 15,7 C 14,6 C 72 % 0 lf 1006,5 hPa 0,0 l/m 0,47 h 0,00 h 197 W/m 11,3 km/h (2 Bft) 98,42 %
08.04.2018 10:00 15,7 C 17,3 C 16,7 C 68 % 0 lf 1006,7 hPa 0,0 l/m 0,00 h 0,00 h 214 W/m 11,4 km/h (2 Bft) 94,45 %
08.04.2018 11:00 17,2 C 20,0 C 19,3 C 64 % 0 lf 1006,6 hPa 0,0 l/m 0,37 h 0,00 h 303 W/m 10,8 km/h (2 Bft) 97,34 %
08.04.2018 12:00 19,1 C 22,9 C 21,7 C 60 % 0 lf 1006,4 hPa 0,0 l/m 0,57 h 0,00 h 428 W/m 12,4 km/h (3 Bft) 98,04 %
08.04.2018 13:00 21,1 C 26,2 C 23,4 C 54 % 0 lf 1005,9 hPa 0,0 l/m 0,90 h 0,00 h 526 W/m 9,7 km/h (2 Bft) 94,51 %
08.04.2018 14:00 23,7 C 32,5 C 23,9 C 47 % 0 lf 1005,4 hPa 0,0 l/m 1,00 h 0,00 h 686 W/m 9,7 km/h (2 Bft) 96,47 %
08.04.2018 15:00 24,9 C 30,1 C 25,0 C 43 % 0 lf 1004,8 hPa 0,0 l/m 1,00 h 0,00 h 648 W/m 16,3 km/h (3 Bft) 99,35 %
08.04.2018 16:00 25,3 C 28,3 C 22,9 C 40 % 0 lf 1004,4 hPa 0,0 l/m 1,00 h 0,00 h 417 W/m 11,3 km/h (2 Bft) 94,60 %
08.04.2018 17:00 25,0 C 25,8 C 22,4 C 40 % 0 lf 1004,0 hPa 0,0 l/m 0,67 h 0,00 h 256 W/m 9,7 km/h (2 Bft) 96,88 %
08.04.2018 18:00 24,7 C 25,1 C 22,0 C 41 % 0 lf 1004,0 hPa 0,0 l/m 0,90 h 0,00 h 193 W/m 8,9 km/h (2 Bft) 97,10 %
08.04.2018 19:00 23,3 C 21,7 C 18,8 C 47 % 0 lf 1004,1 hPa 0,0 l/m 0,03 h 0,00 h 45 W/m 7,8 km/h (2 Bft) 96,33 %
08.04.2018 20:00 20,8 C 18,0 C 13,4 C 54 % 0 lf 1004,4 hPa 0,0 l/m 0,00 h 0,00 h 10 W/m 6,6 km/h (2 Bft) 95,29 %
08.04.2018 21:00 18,1 C 15,1 C 10,7 C 60 % 0 lf 1004,8 hPa 0,0 l/m 0,00 h 0,00 h 0 W/m 0,9 km/h (0 Bft) 96,61 %
08.04.2018 22:00 15,8 C 13,4 C 9,5 C 65 % 0 lf 1004,7 hPa 0,0 l/m 0,00 h 0,00 h 0 W/m 0,0 km/h (0 Bft) 97,79 %
08.04.2018 23:00 14,2 C 12,1 C 9,0 C 70 % 0 lf 1004,6 hPa 0,0 l/m 0,00 h 0,00 h 0 W/m 0,0 km/h (0 Bft) 93,94 %
Min-Datum _ 06.04.18 06.04.18 06.04.18 08.04.18 02.04.18 04.04.18 - - - - 02.04.18 03.04.18
_ Min-Zeit 06:46 06:12 06:10 15:54 09:32 19:00 - - - - 00:22 00:02
Minimum _ 0,9 C 0,0 C -1,7 C 38 % 0 lf 998,1 hPa - - - - 0,0 km/h (0 Bft) 14,29 %
Max-Datum _ 08.04.18 08.04.18 08.04.18 02.04.18 02.04.18 06.04.18 03.04.18 02.04.18 02.04.18 05.04.18 05.04.18 02.04.18
_ Max-Zeit 16:02 14:10 15:24 08:38 00:00 01:12 01:42 10:38 16:38 12:14 09:24 00:02
Maximum _ 25,4 C 35,6 C 26,7 C 98 % 15 lf 1021,9 hPa 0,2 l/m 0,07 h 0,07 h 842 W/m 58,6 km/h
W-SW (7 Bft)
100,00 %
Durchschnitt _ 11,7 C 12,1 C 10,0 C 73 % 1 lf 1006,9 hPa #0,4 l/m #44:10 h #14:50 h 234 W/m 19,4 km/h (3 Bft) 96,41 %
© 2018 W. Hausmann